Time;durP1;ratioP1;P1;durP2;ratioP2;P2;SDS_P1;SDS_P2;PMS_P1;PMS_P2;Temp;Humidity;BMP_temperature;BMP_pressure;BME280_temperature;BME280_humidity;BME280_pressure;Samples;Min_cycle;Max_cycle;Signal;HPM_P1;HPM_P2
2021/06/30 00:00:15;;;;;;;;;11.75;10.25;;;;;19.14;59.57;100266.69;5034750;28;45376;-79
2021/06/30 00:02:41;;;;;;;;;11.00;10.25;;;;;19.15;59.65;100265.72;5010631;28;45545;-77
2021/06/30 00:05:06;;;;;;;;;13.00;11.00;;;;;19.13;59.65;100265.00;4999836;28;47009;-77
2021/06/30 00:07:32;;;;;;;;;15.00;12.50;;;;;19.12;59.81;100268.59;5012255;28;45676;-76
2021/06/30 00:09:58;;;;;;;;;11.25;11.25;;;;;19.12;59.81;100271.22;4999788;28;45554;-76
2021/06/30 00:12:23;;;;;;;;;11.00;11.00;;;;;19.11;59.68;100267.75;5027203;28;45395;-76
2021/06/30 00:14:51;;;;;;;;;10.25;8.25;;;;;19.11;59.99;100266.88;5046377;28;45590;-77
2021/06/30 00:17:16;;;;;;;;;11.00;11.00;;;;;19.09;60.30;100272.28;5022093;28;45530;-77
2021/06/30 00:19:42;;;;;;;;;13.25;12.75;;;;;19.09;60.18;100264.34;5007374;28;45571;-76
2021/06/30 00:22:07;;;;;;;;;12.75;11.25;;;;;19.10;60.00;100262.53;5017617;28;50787;-77
2021/06/30 00:24:33;;;;;;;;;11.25;11.00;;;;;19.09;59.75;100263.50;5034221;28;46158;-77
2021/06/30 00:26:59;;;;;;;;;11.00;10.00;;;;;19.07;60.20;100252.13;5015668;28;45491;-77
2021/06/30 00:29:24;;;;;;;;;11.75;11.25;;;;;19.06;60.28;100256.56;5035761;28;45481;-77
2021/06/30 00:31:49;;;;;;;;;13.75;12.00;;;;;19.06;60.29;100259.22;5033908;28;45607;-77
2021/06/30 00:34:15;;;;;;;;;13.50;11.75;;;;;19.06;60.14;100261.03;5011473;28;46058;-77
2021/06/30 00:36:44;;;;;;;;;11.75;11.75;;;;;19.06;60.16;100258.38;5051723;28;56646;-76
2021/06/30 00:39:10;;;;;;;;;12.50;9.50;;;;;19.04;60.08;100261.13;5018595;28;45813;-76
2021/06/30 00:41:35;;;;;;;;;11.25;10.00;;;;;19.04;59.85;100258.47;5036971;28;45298;-77
2021/06/30 00:44:00;;;;;;;;;9.75;7.50;;;;;19.04;60.37;100263.78;5018053;28;55530;-77
2021/06/30 00:46:30;;;;;;;;;8.50;6.50;;;;;19.04;60.39;100271.72;5038090;28;45318;-77
2021/06/30 00:48:56;;;;;;;;;6.00;6.00;;;;;19.03;60.27;100270.00;5053051;28;45500;-76
2021/06/30 00:51:22;;;;;;;;;8.50;8.50;;;;;19.02;60.49;100263.03;5036059;28;45490;-77
2021/06/30 00:53:47;;;;;;;;;10.25;7.25;;;;;19.00;60.33;100256.97;5034630;28;46633;-75
2021/06/30 00:56:13;;;;;;;;;5.75;5.75;;;;;19.00;60.23;100258.78;5019546;28;45442;-76
2021/06/30 00:58:39;;;;;;;;;8.50;6.25;;;;;18.98;60.57;100258.88;5036938;28;45356;-76
2021/06/30 01:01:05;;;;;;;;;8.25;7.00;;;;;18.98;60.00;100256.25;5019407;28;45569;-76
2021/06/30 01:03:30;;;;;;;;;6.75;6.25;;;;;18.97;60.44;100259.84;5027580;28;45403;-75
2021/06/30 01:05:55;;;;;;;;;8.75;5.50;;;;;18.96;60.53;100265.22;5025257;28;45395;-74
2021/06/30 01:08:21;;;;;;;;;9.75;8.25;;;;;18.96;60.29;100265.22;5025634;28;45257;-75
2021/06/30 01:10:46;;;;;;;;;5.00;5.00;;;;;18.93;60.36;100258.34;5034979;28;45375;-76
2021/06/30 01:13:12;;;;;;;;;8.25;7.00;;;;;18.93;60.54;100253.03;5026972;28;47878;-76
2021/06/30 01:15:56;;;;;;;;;9.00;7.50;;;;;18.91;60.46;100255.78;5038552;28;52343;-76
2021/06/30 01:18:22;;;;;;;;;8.00;8.00;;;;;18.90;60.38;100251.44;5022927;28;45706;-76
2021/06/30 01:20:48;;;;;;;;;9.75;7.75;;;;;18.88;60.73;100256.00;5037038;28;45487;-75
2021/06/30 01:23:13;;;;;;;;;4.25;4.25;;;;;18.88;60.71;100260.44;5018211;28;46401;-76
2021/06/30 01:25:39;;;;;;;;;8.75;6.50;;;;;18.87;60.70;100262.22;5018258;28;51446;-76
2021/06/30 01:28:04;;;;;;;;;5.25;5.25;;;;;18.85;60.70;100255.31;5038687;28;50528;-76
2021/06/30 01:30:30;;;;;;;;;8.00;8.00;;;;;18.84;60.71;100254.47;5003118;28;45250;-76
2021/06/30 01:32:55;;;;;;;;;5.25;5.25;;;;;18.84;60.84;100254.47;5035938;28;47368;-75
2021/06/30 01:35:21;;;;;;;;;9.50;6.75;;;;;18.84;60.53;100250.97;5037877;28;47169;-76
2021/06/30 01:37:47;;;;;;;;;6.25;6.00;;;;;18.81;60.74;100254.66;5034598;28;45399;-76
2021/06/30 01:40:13;;;;;;;;;9.25;6.50;;;;;18.83;60.81;100257.22;5019508;28;45434;-76
2021/06/30 01:42:42;;;;;;;;;6.00;6.00;;;;;18.80;60.72;100250.31;5035947;28;46834;-76
2021/06/30 01:45:08;;;;;;;;;5.75;5.00;;;;;18.80;60.75;100257.41;5019292;28;45349;-76
2021/06/30 01:47:34;;;;;;;;;6.00;5.50;;;;;18.79;60.57;100251.28;5036185;28;45466;-76
2021/06/30 01:49:59;;;;;;;;;8.50;5.25;;;;;18.77;60.96;100253.16;5001289;28;45505;-76
2021/06/30 01:52:29;;;;;;;;;7.00;5.75;;;;;18.77;60.78;100255.81;5017047;28;67484;-76
2021/06/30 01:54:54;;;;;;;;;5.25;5.00;;;;;18.77;61.22;100257.63;5021427;28;45918;-76
2021/06/30 01:57:20;;;;;;;;;5.75;5.25;;;;;18.76;61.21;100258.56;5055456;28;45438;-76
2021/06/30 01:59:45;;;;;;;;;5.75;5.75;;;;;18.73;61.28;100254.31;5024363;28;45431;-76
2021/06/30 02:02:10;;;;;;;;;6.75;6.75;;;;;18.74;60.93;100266.59;5017719;28;50477;-78
2021/06/30 02:04:36;;;;;;;;;6.25;6.25;;;;;18.72;61.46;100262.34;5035714;28;54271;-76
2021/06/30 02:07:01;;;;;;;;;8.25;7.25;;;;;18.72;61.09;100267.66;5019436;28;45407;-76
2021/06/30 02:09:27;;;;;;;;;11.50;10.00;;;;;18.71;61.01;100264.16;5019073;28;45443;-75
2021/06/30 02:11:52;;;;;;;;;8.75;7.50;;;;;18.71;61.34;100266.81;5015564;28;46636;-76
2021/06/30 02:14:17;;;;;;;;;9.25;7.00;;;;;18.70;61.28;100257.16;5021289;28;47661;-75
2021/06/30 02:16:43;;;;;;;;;9.50;9.25;;;;;18.69;61.44;100259.91;5035644;28;45376;-77
2021/06/30 02:19:11;;;;;;;;;10.00;8.75;;;;;18.70;61.30;100265.09;5074812;28;45752;-76
2021/06/30 02:21:36;;;;;;;;;8.50;7.25;;;;;18.70;61.16;100261.59;5056963;28;45446;-77
2021/06/30 02:24:02;;;;;;;;;10.00;9.50;;;;;18.68;61.48;100269.63;5054929;28;50032;-77
2021/06/30 02:26:28;;;;;;;;;8.00;7.75;;;;;18.68;61.47;100267.00;4999431;28;45353;-75
2021/06/30 02:28:54;;;;;;;;;9.25;8.25;;;;;18.67;61.09;100267.94;4998023;28;45354;-76
2021/06/30 02:31:19;;;;;;;;;13.25;10.00;;;;;18.67;61.33;100269.75;4997986;28;46203;-76
2021/06/30 02:33:45;;;;;;;;;8.50;7.25;;;;;18.66;61.29;100273.34;5016048;28;45305;-76
2021/06/30 02:36:11;;;;;;;;;10.25;8.75;;;;;18.66;nan;100274.19;5015680;28;45541;-76
2021/06/30 02:38:36;;;;;;;;;9.25;8.00;;;;;18.65;61.45;100276.91;4998774;28;45247;-76
2021/06/30 02:41:01;;;;;;;;;9.00;7.00;;;;;18.65;61.00;100276.91;4988529;28;47950;-75
2021/06/30 02:43:27;;;;;;;;;11.00;7.75;;;;;18.63;61.63;100274.34;5017947;28;45407;-75
2021/06/30 02:45:52;;;;;;;;;10.25;10.00;;;;;18.62;61.53;100273.50;5017354;28;45541;-76
2021/06/30 02:48:18;;;;;;;;;11.50;8.50;;;;;18.61;61.39;100277.06;5035022;28;48907;-76
2021/06/30 02:50:43;;;;;;;;;9.00;8.25;;;;;18.62;61.35;100280.56;5015577;28;48274;-76
2021/06/30 02:53:09;;;;;;;;;8.50;8.50;;;;;18.60;61.38;100285.94;5010050;28;45968;-76
2021/06/30 02:55:34;;;;;;;;;8.00;6.75;;;;;18.58;61.40;100277.25;5018523;28;45436;-75
2021/06/30 02:58:00;;;;;;;;;9.75;8.75;;;;;18.58;61.30;100287.00;5026336;28;45293;-75
2021/06/30 03:00:25;;;;;;;;;10.25;9.00;;;;;18.57;61.62;100272.91;5031125;28;46492;-76
2021/06/30 03:02:51;;;;;;;;;10.25;9.50;;;;;18.56;61.82;100288.88;4981541;28;45471;-76
2021/06/30 03:05:17;;;;;;;;;12.00;8.75;;;;;18.55;61.56;100290.69;5013336;28;45546;-75
2021/06/30 03:07:42;;;;;;;;;11.00;9.50;;;;;18.53;61.55;100295.22;4997806;28;45457;-76
2021/06/30 03:10:09;;;;;;;;;8.75;7.75;;;;;18.53;61.61;100286.44;5014158;28;46165;-76
2021/06/30 03:12:35;;;;;;;;;13.75;13.25;;;;;18.52;61.34;100287.38;5035405;28;45431;-77
2021/06/30 03:15:01;;;;;;;;;11.50;11.25;;;;;18.50;61.51;100291.91;5015948;28;45528;-76
2021/06/30 03:17:27;;;;;;;;;8.50;8.50;;;;;18.49;61.57;100291.06;5018849;28;45354;-76
2021/06/30 03:19:52;;;;;;;;;9.50;9.50;;;;;18.49;61.45;100299.00;5034717;28;46123;-75
2021/06/30 03:22:19;;;;;;;;;11.00;10.25;;;;;18.50;61.39;100294.56;5035508;28;45426;-76
2021/06/30 03:24:45;;;;;;;;;11.25;10.00;;;;;18.47;61.61;100292.97;5034564;28;45458;-75
2021/06/30 03:27:10;;;;;;;;;16.75;10.50;;;;;18.47;61.50;100290.31;5003709;28;45312;-76
2021/06/30 03:29:36;;;;;;;;;13.00;10.25;;;;;18.46;61.22;100295.69;5036023;28;45466;-77
2021/06/30 03:32:01;;;;;;;;;12.75;10.75;;;;;18.45;61.54;100297.50;5035877;28;45422;-77
2021/06/30 03:34:26;;;;;;;;;12.25;10.75;;;;;18.44;61.17;100298.44;5017359;28;45401;-77
2021/06/30 03:36:52;;;;;;;;;12.00;9.75;;;;;18.42;61.50;100300.31;5035453;28;45537;-76
2021/06/30 03:39:17;;;;;;;;;13.00;10.25;;;;;18.41;61.26;100290.69;5048790;28;65877;-76
2021/06/30 03:41:43;;;;;;;;;11.00;11.00;;;;;18.41;61.28;100295.97;5014752;28;47753;-75
2021/06/30 03:44:08;;;;;;;;;11.75;11.00;;;;;18.41;61.46;100300.41;5016148;28;45568;-76
2021/06/30 03:46:34;;;;;;;;;12.00;11.25;;;;;18.39;61.59;100295.22;5030044;28;45597;-76
2021/06/30 03:49:00;;;;;;;;;12.50;12.25;;;;;18.39;61.21;100297.84;5014767;28;45360;-76
2021/06/30 03:51:25;;;;;;;;;12.00;11.50;;;;;18.38;61.54;100303.25;5013905;28;45395;-76
2021/06/30 03:53:50;;;;;;;;;16.00;12.50;;;;;18.38;61.20;100306.72;4996819;28;45208;-76
2021/06/30 03:56:16;;;;;;;;;17.25;14.25;;;;;18.36;61.31;100302.50;5013851;28;45313;-76
2021/06/30 03:58:41;;;;;;;;;18.50;16.75;;;;;18.36;61.61;100308.63;4995903;28;67508;-76
2021/06/30 04:01:07;;;;;;;;;15.75;13.50;;;;;18.34;61.38;100302.59;5014166;28;45621;-75
2021/06/30 04:03:32;;;;;;;;;16.75;16.00;;;;;18.35;61.51;100308.72;5021104;28;54636;-76
2021/06/30 04:05:58;;;;;;;;;21.50;16.00;;;;;18.33;61.42;100306.16;5018981;28;45446;-76
2021/06/30 04:08:24;;;;;;;;;17.75;13.50;;;;;18.32;61.46;100309.75;5050213;28;45538;-75
2021/06/30 04:10:49;;;;;;;;;13.75;11.25;;;;;18.31;61.37;100306.28;5004858;28;45660;-76
2021/06/30 04:13:16;;;;;;;;;13.50;12.25;;;;;18.30;61.39;100301.06;5020764;28;45488;-75
2021/06/30 04:15:44;;;;;;;;;15.75;12.50;;;;;18.29;61.52;100310.81;5017156;28;45364;-75
2021/06/30 04:18:10;;;;;;;;;18.25;16.25;;;;;18.29;61.29;100305.50;5016950;28;46118;-76
2021/06/30 04:20:35;;;;;;;;;12.50;11.00;;;;;18.27;61.69;100303.91;5017480;28;45427;-75
2021/06/30 04:23:01;;;;;;;;;13.00;11.75;;;;;18.28;61.42;100298.53;4998143;28;45698;-75
2021/06/30 04:25:26;;;;;;;;;13.75;13.25;;;;;18.28;61.68;100301.16;5017421;28;45448;-76
2021/06/30 04:27:52;;;;;;;;;12.00;11.50;;;;;18.28;61.63;100308.25;5015971;28;45988;-76
2021/06/30 04:30:17;;;;;;;;;13.00;11.50;;;;;18.27;61.66;100309.19;5017037;28;45934;-76
2021/06/30 04:32:43;;;;;;;;;15.00;9.50;;;;;18.25;61.58;100308.44;5016419;28;45495;-76
2021/06/30 04:35:08;;;;;;;;;13.00;9.75;;;;;18.24;61.55;100306.75;5017108;28;45492;-76
2021/06/30 04:37:34;;;;;;;;;11.00;10.50;;;;;18.23;61.61;100313.81;5015133;28;45487;-77
2021/06/30 04:40:00;;;;;;;;;12.25;10.00;;;;;18.22;61.46;100309.47;5018365;28;45460;-76
2021/06/30 04:42:25;;;;;;;;;12.00;10.50;;;;;18.21;61.42;100315.69;5052047;28;45545;-77
2021/06/30 04:44:51;;;;;;;;;10.00;9.00;;;;;18.20;61.65;100313.13;5037555;28;45391;-76
2021/06/30 04:47:16;;;;;;;;;12.75;12.00;;;;;18.20;61.58;100313.13;5019152;28;45947;-76
2021/06/30 04:49:42;;;;;;;;;11.25;9.75;;;;;18.18;61.66;100321.16;5038033;28;52068;-76
2021/06/30 04:52:07;;;;;;;;;12.00;10.50;;;;;18.18;61.52;100317.66;5038662;28;45483;-77
2021/06/30 04:54:33;;;;;;;;;9.50;9.50;;;;;18.18;61.53;100309.75;5030836;28;45341;-77
2021/06/30 04:56:58;;;;;;;;;13.00;11.25;;;;;18.18;61.52;100313.22;5031279;28;58944;-77
2021/06/30 04:59:23;;;;;;;;;12.50;8.50;;;;;18.17;61.57;100314.19;5036040;28;56692;-76
2021/06/30 05:01:50;;;;;;;;;12.50;10.25;;;;;18.16;61.69;100308.97;5030411;28;45554;-76
2021/06/30 05:04:16;;;;;;;;;11.00;9.75;;;;;18.16;61.80;100312.47;5023982;28;47210;-76
2021/06/30 05:06:41;;;;;;;;;11.50;11.25;;;;;18.16;61.79;100316.91;5008862;28;45495;-75
2021/06/30 05:09:07;;;;;;;;;9.75;8.50;;;;;18.18;61.95;100321.16;5036763;28;45332;-75
2021/06/30 05:11:32;;;;;;;;;11.50;10.50;;;;;18.18;62.01;100321.16;5033458;28;45607;-74
2021/06/30 05:13:58;;;;;;;;;8.25;7.75;;;;;18.19;61.77;100320.22;5019912;28;45545;-76
2021/06/30 05:16:24;;;;;;;;;8.75;8.50;;;;;18.20;61.91;100321.06;5013657;28;46269;-76
2021/06/30 05:18:50;;;;;;;;;11.25;8.50;;;;;18.20;61.75;100321.91;5021500;28;45515;-75
2021/06/30 05:21:15;;;;;;;;;8.50;8.00;;;;;18.19;61.77;100327.28;5017887;28;45587;-75
2021/06/30 05:23:41;;;;;;;;;10.50;10.50;;;;;18.19;61.91;100322.00;5036296;28;45619;-75
2021/06/30 05:26:06;;;;;;;;;9.25;7.50;;;;;18.19;61.97;100332.59;5018116;28;47399;-76
2021/06/30 05:28:32;;;;;;;;;10.00;9.75;;;;;18.19;61.92;100332.59;5002266;28;45416;-76
2021/06/30 05:31:00;;;;;;;;;7.50;6.00;;;;;18.19;62.01;100335.22;5029951;28;49158;-77
2021/06/30 05:33:25;;;;;;;;;11.25;7.00;;;;;18.19;61.92;100337.88;5035256;28;45327;-76
2021/06/30 05:35:50;;;;;;;;;7.75;7.75;;;;;18.19;62.10;100338.72;5037032;28;58430;-75
2021/06/30 05:38:16;;;;;;;;;10.75;8.50;;;;;18.19;62.09;100338.72;5018880;28;45610;-78
2021/06/30 05:40:41;;;;;;;;;7.00;7.00;;;;;18.18;62.22;100337.03;5013519;28;45489;-75
2021/06/30 05:43:07;;;;;;;;;7.50;6.00;;;;;18.19;62.04;100337.88;5011165;28;45453;-75
2021/06/30 05:45:32;;;;;;;;;10.25;7.00;;;;;18.16;61.95;100344.19;5015479;28;48033;-76
2021/06/30 05:47:57;;;;;;;;;11.25;8.75;;;;;18.15;61.84;100339.84;5013591;28;45807;-77
2021/06/30 05:50:23;;;;;;;;;9.75;7.00;;;;;18.16;62.12;100343.34;5036436;28;46369;-75
2021/06/30 05:52:48;;;;;;;;;9.25;8.25;;;;;18.15;62.21;100341.66;5012333;28;45665;-77
2021/06/30 05:55:14;;;;;;;;;7.75;7.75;;;;;18.14;61.89;100345.22;5018817;28;45415;-76
2021/06/30 05:57:39;;;;;;;;;6.75;6.00;;;;;18.13;62.19;100349.66;5016720;28;45488;-76
2021/06/30 06:00:10;;;;;;;;;8.00;7.25;;;;;18.14;62.10;100348.72;5000151;28;45422;-76
2021/06/30 06:02:36;;;;;;;;;9.50;8.50;;;;;18.11;61.98;100346.28;5000007;28;45395;-78
2021/06/30 06:05:01;;;;;;;;;7.00;6.00;;;;;18.12;62.05;100347.13;5050088;28;46736;-76
2021/06/30 06:07:27;;;;;;;;;4.75;4.75;;;;;18.11;62.11;100353.34;5053137;28;45229;-76
2021/06/30 06:09:52;;;;;;;;;7.00;6.00;;;;;18.10;62.15;100349.00;5033468;28;58468;-75
2021/06/30 06:12:17;;;;;;;;;8.25;6.00;;;;;18.08;62.24;100350.91;5018477;28;47891;-76
2021/06/30 06:14:43;;;;;;;;;9.00;7.75;;;;;18.06;62.26;100358.91;5016635;28;55017;-76
2021/06/30 06:17:09;;;;;;;;;5.50;5.00;;;;;18.05;62.24;100356.38;5027072;28;45680;-76
2021/06/30 06:19:35;;;;;;;;;6.00;6.00;;;;;18.03;62.31;100367.03;5055845;28;45506;-78
2021/06/30 06:22:00;;;;;;;;;7.25;6.25;;;;;18.01;62.33;100369.75;5021890;28;45412;-77
2021/06/30 06:24:26;;;;;;;;;7.00;6.25;;;;;17.99;62.28;100366.31;5053818;28;47059;-77
2021/06/30 06:26:52;;;;;;;;;7.75;7.75;;;;;17.99;62.31;100365.47;5054683;28;45491;-79
2021/06/30 06:29:18;;;;;;;;;9.00;9.00;;;;;17.98;62.30;100369.91;5019806;28;45527;-77
2021/06/30 06:31:45;;;;;;;;;6.50;6.50;;;;;17.96;62.41;100366.50;5036407;28;45467;-78
2021/06/30 06:34:12;;;;;;;;;9.00;7.75;;;;;17.94;62.29;100367.53;5034807;28;47671;-76
2021/06/30 06:36:37;;;;;;;;;7.00;6.25;;;;;17.90;62.06;100371.31;5019097;28;45469;-76
2021/06/30 06:39:04;;;;;;;;;8.50;6.75;;;;;17.86;62.12;100383.00;5018106;28;45522;-76
2021/06/30 06:41:31;;;;;;;;;5.00;5.00;;;;;17.80;62.10;100380.72;5036316;28;45643;-75
2021/06/30 06:43:57;;;;;;;;;6.75;6.75;;;;;17.74;62.17;100381.91;5017648;28;46189;-72
2021/06/30 06:46:22;;;;;;;;;8.50;8.50;;;;;17.72;62.03;100386.44;5034417;28;45420;-72
2021/06/30 06:48:47;;;;;;;;;2.00;1.25;;;;;17.70;62.15;100385.66;5034295;28;45440;-72
2021/06/30 06:51:13;;;;;;;;;7.75;6.00;;;;;17.67;62.25;100383.19;5033101;28;45682;-73
2021/06/30 06:53:39;;;;;;;;;6.75;6.25;;;;;17.62;62.03;100385.25;5015493;28;45349;-71
2021/06/30 06:56:12;;;;;;;;;9.00;7.00;;;;;17.57;62.26;100388.16;4997248;28;45349;-74
2021/06/30 06:58:37;;;;;;;;;10.75;9.75;;;;;17.54;62.10;100383.00;4999206;28;45476;-72
2021/06/30 07:01:03;;;;;;;;;13.00;13.00;;;;;17.55;64.01;100382.06;5009981;28;45539;-76
2021/06/30 07:03:28;;;;;;;;;10.00;8.75;;;;;17.33;65.26;100390.34;5002542;28;47869;-74
2021/06/30 07:05:54;;;;;;;;;7.00;6.75;;;;;17.12;65.50;100386.25;5030761;28;45395;-76
2021/06/30 07:08:19;;;;;;;;;8.75;8.75;;;;;16.99;66.59;100385.25;5013295;28;48966;-73
2021/06/30 07:10:45;;;;;;;;;11.00;11.00;;;;;16.85;67.18;100385.13;5015945;28;45297;-73
2021/06/30 07:13:10;;;;;;;;;8.75;7.75;;;;;16.72;67.18;100388.44;5034483;28;45420;-73
2021/06/30 07:15:39;;;;;;;;;8.75;7.50;;;;;16.64;67.28;100385.31;5002206;28;45782;-74
2021/06/30 07:18:05;;;;;;;;;8.50;8.50;;;;;16.60;67.90;100389.03;5033181;28;45453;-73
2021/06/30 07:20:39;;;;;;;;;10.50;10.50;;;;;16.55;68.34;100398.13;5013292;28;45485;-76
2021/06/30 07:23:05;;;;;;;;;11.50;9.25;;;;;16.52;68.23;100390.38;5042630;28;45538;-72
2021/06/30 07:25:30;;;;;;;;;10.00;9.75;;;;;16.57;67.98;100398.91;5021978;28;45474;-74
2021/06/30 07:27:55;;;;;;;;;8.75;8.75;;;;;16.58;68.39;100390.06;5006655;28;46728;-74
2021/06/30 07:30:21;;;;;;;;;13.75;11.00;;;;;16.62;68.54;100391.59;5026470;28;45598;-73
2021/06/30 07:32:46;;;;;;;;;10.75;10.50;;;;;16.66;68.42;100401.03;5016879;28;46708;-72
2021/06/30 07:35:12;;;;;;;;;8.75;8.75;;;;;16.66;68.22;100401.94;5011316;28;45535;-72
2021/06/30 07:37:37;;;;;;;;;12.00;12.00;;;;;16.68;68.33;100400.06;5012954;28;45602;-74
2021/06/30 07:40:04;;;;;;;;;9.00;9.00;;;;;16.66;68.54;100408.94;4994862;28;45623;-74
2021/06/30 07:42:29;;;;;;;;;15.25;13.00;;;;;16.67;68.49;100410.69;5018544;28;47068;-74
2021/06/30 07:44:54;;;;;;;;;12.50;11.00;;;;;16.66;68.80;100416.88;5034459;28;45457;-74
2021/06/30 07:47:20;;;;;;;;;13.50;10.00;;;;;16.63;68.28;100419.66;5000254;28;45547;-77
2021/06/30 07:49:45;;;;;;;;;10.00;10.00;;;;;16.66;68.36;100420.38;5035126;28;45257;-73
2021/06/30 07:52:11;;;;;;;;;10.00;9.75;;;;;16.75;68.60;100425.19;5029188;28;45570;-78
2021/06/30 07:54:36;;;;;;;;;12.00;12.00;;;;;16.83;68.05;100416.00;5020230;28;45498;-77
2021/06/30 07:57:02;;;;;;;;;13.25;10.50;;;;;16.85;67.78;100420.28;5016188;28;45518;-78
2021/06/30 07:59:27;;;;;;;;;12.00;12.00;;;;;16.85;67.48;100408.88;5017198;28;45403;-77
2021/06/30 08:01:53;;;;;;;;;10.25;9.50;;;;;16.92;67.74;100415.53;5033668;28;45507;-71
2021/06/30 08:04:18;;;;;;;;;13.50;12.50;;;;;16.94;67.54;100414.53;5033213;28;45964;-75
2021/06/30 08:06:44;;;;;;;;;13.00;11.00;;;;;16.91;66.99;100413.81;5031174;28;45526;-73
2021/06/30 08:09:09;;;;;;;;;13.50;12.75;;;;;16.96;67.06;100404.72;5033763;28;45679;-73
2021/06/30 08:11:35;;;;;;;;;8.75;7.75;;;;;17.11;67.07;100405.66;5037335;28;45468;-75
2021/06/30 08:14:00;;;;;;;;;14.50;14.00;;;;;17.19;67.13;100406.13;5020467;28;45436;-73
2021/06/30 08:16:25;;;;;;;;;11.50;11.50;;;;;17.23;66.69;100405.00;5016470;28;46143;-73
2021/06/30 08:18:51;;;;;;;;;12.50;11.25;;;;;17.24;66.47;100409.34;5027105;28;45542;-72
2021/06/30 08:21:16;;;;;;;;;12.50;11.00;;;;;17.23;65.95;100406.78;5022720;28;47985;-73
2021/06/30 08:23:42;;;;;;;;;13.75;11.50;;;;;17.23;66.19;100410.28;5021628;28;45460;-72
2021/06/30 08:26:09;;;;;;;;;18.50;14.75;;;;;17.31;66.37;100410.72;5047174;28;45298;-73
2021/06/30 08:28:38;;;;;;;;;15.75;14.50;;;;;17.44;66.35;100412.69;5018286;28;45681;-73
2021/06/30 08:31:03;;;;;;;;;19.50;15.50;;;;;17.48;66.13;100414.19;5037871;28;48078;-73
2021/06/30 08:33:29;;;;;;;;;16.00;13.00;;;;;17.45;66.29;100415.22;5028666;28;45923;-75
2021/06/30 08:35:55;;;;;;;;;17.00;16.25;;;;;17.40;65.71;100412.00;4993973;28;45868;-76
2021/06/30 08:38:21;;;;;;;;;19.75;17.75;;;;;17.33;65.96;100411.47;5010406;28;45685;-74
2021/06/30 08:40:46;;;;;;;;;14.75;13.25;;;;;17.33;66.18;100422.03;5005146;28;45866;-73
2021/06/30 08:43:12;;;;;;;;;17.75;17.50;;;;;17.35;65.96;100414.03;5016545;28;45534;-76
2021/06/30 08:45:37;;;;;;;;;18.75;18.25;;;;;17.38;65.78;100417.38;5018572;28;45757;-75
2021/06/30 08:48:03;;;;;;;;;15.00;13.25;;;;;17.38;65.28;100412.09;5031788;28;45427;-72
2021/06/30 08:50:29;;;;;;;;;14.75;13.50;;;;;17.39;65.26;100413.78;4999011;28;47114;-72
2021/06/30 08:52:55;;;;;;;;;14.75;13.50;;;;;17.48;64.99;100415.06;5001200;28;45416;-73
2021/06/30 08:55:21;;;;;;;;;15.50;13.25;;;;;17.57;65.29;100416.34;5002735;28;45433;-72
2021/06/30 08:57:46;;;;;;;;;19.00;17.75;;;;;17.75;65.05;100417.94;5001941;28;45528;-72
2021/06/30 09:00:12;;;;;;;;;12.75;11.25;;;;;18.04;64.81;100404.88;4998925;28;47040;-74
2021/06/30 09:02:55;;;;;;;;;12.25;11.25;;;;;18.27;64.02;100410.50;5033393;28;45362;-75
2021/06/30 09:07:50;;;;;;;;;11.75;11.75;;;;;18.28;63.18;100411.34;5018100;28;45531;-73
2021/06/30 09:10:36;;;;;;;;;12.00;11.00;;;;;18.28;62.53;100416.66;5000680;28;46512;-73
2021/06/30 09:13:02;;;;;;;;;14.00;11.00;;;;;18.17;62.82;100417.25;5015283;28;45646;-73
2021/06/30 09:15:35;;;;;;;;;11.00;9.75;;;;;18.10;62.45;100409.78;5015053;28;45479;-74
2021/06/30 09:18:16;;;;;;;;;10.75;10.50;;;;;18.09;62.75;100405.44;5016336;28;45503;-74
2021/06/30 09:20:41;;;;;;;;;12.00;10.25;;;;;18.18;63.32;100412.81;4999744;28;45616;-75
2021/06/30 09:23:06;;;;;;;;;14.75;11.75;;;;;18.23;63.13;100411.63;5024832;28;51836;-74
2021/06/30 09:25:34;;;;;;;;;16.25;13.25;;;;;18.25;63.09;100406.25;5025671;28;46627;-74
2021/06/30 09:27:59;;;;;;;;;14.75;14.75;;;;;18.21;62.97;100416.13;5014486;28;45470;-73
2021/06/30 09:30:25;;;;;;;;;14.50;11.50;;;;;18.16;63.06;100412.06;5032063;28;45413;-77
2021/06/30 09:33:01;;;;;;;;;13.00;13.00;;;;;18.14;63.48;100419.25;4997929;28;45542;-71
2021/06/30 09:35:32;;;;;;;;;10.75;10.75;;;;;18.13;63.24;100418.38;4999752;28;45538;-72
2021/06/30 09:37:58;;;;;;;;;13.75;13.75;;;;;18.13;63.56;100422.81;5032188;28;45255;-73
2021/06/30 09:40:39;;;;;;;;;15.50;15.00;;;;;18.18;63.36;100426.03;5016455;28;46306;-74
2021/06/30 09:43:05;;;;;;;;;12.75;12.75;;;;;18.15;62.57;100428.88;5016593;28;45368;-74
2021/06/30 09:45:30;;;;;;;;;15.00;12.25;;;;;18.15;63.03;100432.38;5015424;28;51179;-75
2021/06/30 09:47:57;;;;;;;;;13.50;11.25;;;;;18.15;63.48;100429.72;5014014;28;50971;-73
2021/06/30 09:50:39;;;;;;;;;16.50;14.00;;;;;18.28;63.07;100428.06;5047627;28;46140;-76
2021/06/30 09:53:04;;;;;;;;;15.75;13.25;;;;;18.41;62.74;100427.31;5019262;28;45511;-75
2021/06/30 09:55:30;;;;;;;;;8.50;8.50;;;;;18.44;62.96;100432.47;5018436;28;45554;-73
2021/06/30 09:57:58;;;;;;;;;12.25;12.25;;;;;18.45;62.34;100435.00;5018654;28;45460;-74
2021/06/30 10:00:26;;;;;;;;;13.75;10.50;;;;;18.40;62.60;100437.06;5035502;28;45640;-72
2021/06/30 10:02:52;;;;;;;;;13.25;13.25;;;;;18.41;62.00;100433.47;5002345;28;45476;-76
2021/06/30 10:05:28;;;;;;;;;13.00;13.00;;;;;18.42;61.66;100443.09;4997740;28;45446;-73
2021/06/30 10:08:07;;;;;;;;;15.25;14.25;;;;;18.33;61.91;100436.56;4999182;28;45369;-75
2021/06/30 10:10:32;;;;;;;;;19.25;14.00;;;;;18.23;62.25;100434.56;5014325;28;45404;-73
2021/06/30 10:13:00;;;;;;;;;17.00;14.50;;;;;18.15;62.27;100439.44;5028642;28;47939;-73
2021/06/30 10:15:25;;;;;;;;;12.75;12.75;;;;;18.13;62.59;100442.19;5014288;28;45502;-73
2021/06/30 10:17:51;;;;;;;;;11.50;11.50;;;;;18.18;62.39;100448.03;4999713;28;45591;-73
2021/06/30 10:20:18;;;;;;;;;14.25;13.25;;;;;18.17;62.12;100451.63;4998469;28;46509;-72
2021/06/30 10:22:43;;;;;;;;;16.25;12.75;;;;;18.15;62.64;100448.22;5015376;28;45344;-76
2021/06/30 10:25:09;;;;;;;;;11.00;11.00;;;;;18.15;62.32;100447.38;4997654;28;45491;-74
2021/06/30 10:27:35;;;;;;;;;13.00;12.50;;;;;18.09;61.95;100448.59;5015741;28;45351;-71
2021/06/30 10:30:00;;;;;;;;;22.75;22.00;;;;;18.02;62.03;100447.25;4998150;28;47094;-73
2021/06/30 10:32:26;;;;;;;;;15.00;13.75;;;;;18.00;62.46;100446.47;5018442;28;45361;-72
2021/06/30 10:35:03;;;;;;;;;11.00;11.00;;;;;18.02;62.26;100448.09;5001014;28;45377;-71
2021/06/30 10:37:32;;;;;;;;;15.50;13.50;;;;;18.05;62.34;100444.44;5018359;28;45912;-72
2021/06/30 10:40:04;;;;;;;;;17.00;13.50;;;;;18.05;62.31;100443.56;5017690;28;45604;-73
2021/06/30 10:42:33;;;;;;;;;16.00;13.00;;;;;18.01;62.61;100448.19;5015428;28;45507;-72
2021/06/30 10:45:21;;;;;;;;;10.25;10.25;;;;;18.00;62.45;100444.69;5008821;28;45453;-72
2021/06/30 10:47:56;;;;;;;;;14.50;11.00;;;;;18.08;62.44;100444.25;4999901;28;45498;-71
2021/06/30 10:50:24;;;;;;;;;16.50;13.00;;;;;18.13;62.39;100441.31;5032316;28;46990;-72
2021/06/30 10:53:01;;;;;;;;;12.00;11.00;;;;;18.27;62.48;100449.31;5017162;28;45524;-73
2021/06/30 10:55:36;;;;;;;;;15.75;12.75;;;;;18.31;62.38;100445.53;5016854;28;45498;-76
2021/06/30 10:58:22;;;;;;;;;17.50;15.50;;;;;18.28;62.34;100443.09;5034296;28;45439;-73
2021/06/30 11:01:05;;;;;;;;;13.25;12.75;;;;;18.28;62.31;100446.56;5024625;28;47184;-75
2021/06/30 11:03:44;;;;;;;;;13.25;11.75;;;;;18.32;62.02;100449.88;5006406;28;45802;-73
2021/06/30 11:06:10;;;;;;;;;12.50;12.50;;;;;18.36;61.62;100447.91;5027340;28;45552;-75
2021/06/30 11:08:48;;;;;;;;;14.25;13.00;;;;;18.36;60.92;100451.41;5043566;28;45764;-71
2021/06/30 11:11:24;;;;;;;;;12.50;12.25;;;;;18.40;60.26;100455.56;5030642;28;47389;-77
2021/06/30 11:14:08;;;;;;;;;12.50;11.75;;;;;18.59;59.09;100448.22;5003052;28;45486;-73
2021/06/30 11:16:39;;;;;;;;;12.25;11.25;;;;;19.03;58.74;100447.34;5007327;28;45470;-72